Dillard, Oregon
Current Conditions -  °F | °C
As of 10:53 PM on Friday 19 Dec 2014 (Local Time) from KRBG Reporting Station
Light Rain Light Rain  
Wind Chill: 48°   Ceiling: 5500
Heat Index: 48°   Visibility: 7mi
Dew Point: 45°   Wind: 0mph
Humidity: 89%   Direction: NA
Pressure: 29.96"   Gusts: NA
Location:  43.1°N, 123.43°W
Report Text: KRBG 200653Z AUTO 00000KT 7SM -RA OVC055 09/07 A2996 RMK AO2 SLP147 P0005 T00890072
Loading
Personal Weather Stations






























Interactive Weather Map New forecast layout! Learn more

10-Day Weather Forecast

Advertisements
Track Severe Weather on mobile